Lord Nelson — GHJV — position and weather

sailwx.info

Track history (hours):
 
Tides and Currents Weather Stations Pressure Air Temp Water Temp Dewpoint Dewpoint Depression Visibility Wind Speed Wind Dir Waves Ship Positions

Lord Nelson (United Kingdom)

Ship's website: http://www.jst.org.uk/

Last reported at 2019-Sep-20 08:43 UTC. Time now 2019-Sep-20 09:39 UTC.
Position N 55°05' W 000°51'.

Length 54.7 m; beam 9 m; draft 4.1 m.

Type: Sailing vessel. MMSI: 232003690.

Date/timePositionNaut miles runAvg speedWind from/ knotsBaromVisibWave heightAir tempDewpointWater temp
2019-Sep-20 08:43N 55°05' W 000°51'2 7.7
2019-Sep-20 08:26N 55°06' W 000°54'3 7.7
2019-Sep-20 08:00N 55°09' W 000°57'4 7.8
2019-Sep-20 07:30N 55°12' W 001°01'4 7.9
2019-Sep-20 07:00N 55°16' W 001°05'4 7.8
2019-Sep-20 06:29N 55°19' W 001°09'4 7.9
2019-Sep-20 05:59N 55°22' W 001°13'4 7.8
2019-Sep-20 05:31N 55°26' W 001°16'4 8.1
2019-Sep-20 04:58N 55°29' W 001°20'4 8.2
2019-Sep-20 04:26N 55°33' W 001°24'3 7.8
2019-Sep-20 04:00N 55°36' W 001°27'4 7.8
2019-Sep-20 03:30N 55°39' W 001°31'4 7.8
2019-Sep-20 03:01N 55°42' W 001°35'4 7.8
2019-Sep-20 02:30N 55°45' W 001°40'4 7.8
2019-Sep-20 02:01N 55°47' W 001°45'4 7.6
2019-Sep-20 01:31N 55°50' W 001°50'4 7.2
2019-Sep-20 01:00N 55°52' W 001°55'3 6.7
2019-Sep-20 00:31N 55°54' W 001°60'3 6.8
2019-Sep-20 00:01N 55°56' W 002°05'3 6.8
2019-Sep-19 23:30N 55°59' W 002°09'4 7.2
2019-Sep-19 22:59N 56°00' W 002°15'4 7.2
2019-Sep-19 22:25N 56°02' W 002°22'3 7.8
2019-Sep-19 22:00N 56°03' W 002°27'4 8.0
2019-Sep-19 21:30N 56°05' W 002°33'5 8.5
2019-Sep-19 20:57N 56°06' W 002°42'4 9.0
2019-Sep-19 20:30N 56°05' W 002°49'5 9.5
2019-Sep-19 20:00N 56°03' W 002°57'5 9.2
2019-Sep-19 19:29N 56°02' W 003°05'4 8.6
2019-Sep-19 19:00N 55°60' W 003°11'0 0.8
2019-Sep-19 18:24N 55°59' W 003°11'0 1.0
2019-Sep-19 17:58N 55°59' W 003°11'0 0.0
2019-Sep-19 17:28N 55°59' W 003°11'0 0.0
2019-Sep-19 16:58N 55°59' W 003°11'0 0.0
2019-Sep-19 16:28N 55°59' W 003°11'0 0.0
2019-Sep-19 16:01N 55°59' W 003°11'0 0.0
2019-Sep-19 15:31N 55°59' W 003°11'0 0.0
2019-Sep-19 15:01N 55°59' W 003°11'0 0.0
2019-Sep-19 14:31N 55°59' W 003°11'0 0.0
2019-Sep-19 14:01N 55°59' W 003°11'0 0.0
2019-Sep-19 13:31N 55°59' W 003°11'0 0.0
2019-Sep-19 13:00N 55°59' W 003°11'0 0.0
2019-Sep-19 12:30N 55°59' W 003°11'0 0.0
2019-Sep-19 12:00N 55°59' W 003°11'0 0.0
2019-Sep-19 11:30N 55°59' W 003°11'0 0.0
2019-Sep-19 11:00N 55°59' W 003°11'0 0.0
2019-Sep-19 10:30N 55°59' W 003°11'0 0.0
2019-Sep-19 10:00N 55°59' W 003°11'0 0.0
2019-Sep-19 09:30N 55°59' W 003°11'0 0.0
2019-Sep-19 09:00N 55°59' W 003°11'0 0.0
2019-Sep-19 08:30N 55°59' W 003°11'0 0.0
2019-Sep-19 08:00N 55°59' W 003°11'0 0.0
2019-Sep-19 07:30N 55°59' W 003°11'0 0.0
2019-Sep-19 07:00N 55°59' W 003°11'0 0.0
2019-Sep-19 06:30N 55°59' W 003°11'0 0.0
2019-Sep-19 06:00N 55°59' W 003°11'0 0.0
2019-Sep-19 05:30N 55°59' W 003°11'0 0.0
2019-Sep-19 05:00N 55°59' W 003°11'0 0.0
2019-Sep-19 04:30N 55°59' W 003°11'0 0.0
2019-Sep-19 04:00N 55°59' W 003°11'0 0.0
2019-Sep-19 03:30N 55°59' W 003°11'0 0.0
2019-Sep-19 03:00N 55°59' W 003°11'0 0.0
2019-Sep-19 02:30N 55°59' W 003°11'0 0.0
2019-Sep-19 02:00N 55°59' W 003°11'0 0.0
2019-Sep-19 01:30N 55°59' W 003°11'0 0.0
2019-Sep-19 01:00N 55°59' W 003°11'0 0.0
2019-Sep-19 00:30N 55°59' W 003°11'0 0.0
2019-Sep-19 00:00N 55°59' W 003°11'0 0.0
2019-Sep-18 23:30N 55°59' W 003°11'0 0.0
2019-Sep-18 23:00N 55°59' W 003°11'0 0.0
2019-Sep-18 22:30N 55°59' W 003°11'0 0.0
2019-Sep-18 22:00N 55°59' W 003°11'0 0.0
2019-Sep-18 21:30N 55°59' W 003°11'0 0.0
2019-Sep-18 21:00N 55°59' W 003°11'0 0.0
2019-Sep-18 20:30N 55°59' W 003°11'0 0.0
2019-Sep-18 20:00N 55°59' W 003°11'0 0.0
2019-Sep-18 19:27N 55°59' W 003°11'0 0.0
2019-Sep-18 19:00N 55°59' W 003°11'0 0.0
2019-Sep-18 18:30N 55°59' W 003°11'0 0.0
2019-Sep-18 18:00N 55°59' W 003°11'0 0.0
2019-Sep-18 17:30N 55°59' W 003°11'0 0.0
2019-Sep-18 17:00N 55°59' W 003°11'0 0.0
2019-Sep-18 16:27N 55°59' W 003°11'0 0.0
2019-Sep-18 16:00N 55°59' W 003°11'0 0.0
2019-Sep-18 15:30N 55°59' W 003°11'0 0.0
2019-Sep-18 15:00N 55°59' W 003°11'0 0.0
2019-Sep-18 14:30N 55°59' W 003°11'0 0.0
2019-Sep-18 14:00N 55°59' W 003°11'0 0.0
2019-Sep-18 13:30N 55°59' W 003°11'0 0.0
2019-Sep-18 13:00N 55°59' W 003°11'0 0.0
2019-Sep-18 12:30N 55°59' W 003°11'0 0.0
2019-Sep-18 12:00N 55°59' W 003°11'0 0.0
2019-Sep-18 11:30N 55°59' W 003°11'0 0.0
2019-Sep-18 11:00N 55°59' W 003°11'0 0.0
2019-Sep-18 10:30N 55°59' W 003°11'0 0.0
2019-Sep-18 10:00N 55°59' W 003°11'0 0.0
2019-Sep-18 09:30N 55°59' W 003°11'0 0.0
2019-Sep-18 09:00N 55°59' W 003°11'0 0.0
2019-Sep-18 08:30N 55°59' W 003°11'0 0.0
2019-Sep-18 08:00N 55°59' W 003°11'0 0.0
2019-Sep-18 07:30N 55°59' W 003°11'0 0.0
2019-Sep-18 07:00N 55°59' W 003°11'0 0.0
2019-Sep-18 06:30N 55°59' W 003°11'0 0.0
2019-Sep-18 06:00N 55°59' W 003°11'0 0.0
2019-Sep-18 05:30N 55°59' W 003°11'0 0.0
2019-Sep-18 05:00N 55°59' W 003°11'0 0.0
2019-Sep-18 04:30N 55°59' W 003°11'0 0.0
2019-Sep-18 04:00N 55°59' W 003°11'0 0.0
2019-Sep-18 03:30N 55°59' W 003°11'0 0.0
2019-Sep-18 03:00N 55°59' W 003°11'0 0.0
2019-Sep-18 02:30N 55°59' W 003°11'0 0.0
2019-Sep-18 02:00N 55°59' W 003°11'0 0.0
2019-Sep-18 01:30N 55°59' W 003°11'0 0.0
2019-Sep-18 01:00N 55°59' W 003°11'0 0.0
2019-Sep-18 00:30N 55°59' W 003°11'0 0.0
2019-Sep-18 00:00N 55°59' W 003°11'0 0.0
2019-Sep-17 23:30N 55°59' W 003°11'0 0.0
2019-Sep-17 23:00N 55°59' W 003°11'0 0.0
2019-Sep-17 22:30N 55°59' W 003°11'0 0.0
2019-Sep-17 22:00N 55°59' W 003°11'0 0.0
2019-Sep-17 21:30N 55°59' W 003°11'0 0.0
2019-Sep-17 21:00N 55°59' W 003°11'0 0.0
2019-Sep-17 20:30N 55°59' W 003°11'0 0.0
2019-Sep-17 20:00N 55°59' W 003°11'0 0.0
2019-Sep-17 19:30N 55°59' W 003°11'0 0.0
2019-Sep-17 19:00N 55°59' W 003°11'0 0.0
2019-Sep-17 18:27N 55°59' W 003°11'0 0.0
2019-Sep-17 18:00N 55°59' W 003°11'0 0.0
2019-Sep-17 17:30N 55°59' W 003°11'0 0.0
2019-Sep-17 17:00N 55°59' W 003°11'0 0.0
2019-Sep-17 16:30N 55°59' W 003°11'0 0.0
2019-Sep-17 16:00N 55°59' W 003°11'0 0.0
2019-Sep-17 15:30N 55°59' W 003°11'0 0.0
2019-Sep-17 15:00N 55°59' W 003°11'0 0.9
2019-Sep-17 14:30N 55°59' W 003°11'0 0.8
2019-Sep-17 14:00N 55°60' W 003°11'2 4.7
2019-Sep-17 13:30N 56°01' W 003°07'4 7.1
2019-Sep-17 13:00N 56°02' W 003°02'4 7.7
2019-Sep-17 12:30N 56°04' W 002°55'4 7.7
2019-Sep-17 12:00N 56°05' W 002°49'5 6.8
2019-Sep-17 11:17N 56°05' W 002°40'2 7.0
2019-Sep-17 11:00N 56°04' W 002°37'5 6.6
2019-Sep-17 10:14N 56°04' W 002°28'10 6.3
2019-Sep-17 08:39N 56°04' W 002°10'1 5.9
2019-Sep-17 08:30N 56°04' W 002°08'3 5.9
2019-Sep-17 08:00N 56°04' W 002°03'3 5.7
2019-Sep-17 07:26N 56°04' W 001°57'3 6.1
2019-Sep-17 07:00N 56°05' W 001°52'3 5.9
2019-Sep-17 06:31N 56°06' W 001°47'3 5.3
2019-Sep-17 06:00N 56°06' W 001°43'2 4.2
2019-Sep-17 05:30N 56°07' W 001°39'0 0.9
2019-Sep-17 05:00N 56°06' W 001°39'2 4.0
2019-Sep-17 04:30N 56°05' W 001°42'3 5.6
2019-Sep-17 04:01N 56°03' W 001°46'2 4.2
2019-Sep-17 03:31N 56°02' W 001°48'1 2.2
2019-Sep-17 03:00N 56°02' W 001°50'3 5.4
2019-Sep-17 02:30N 56°05' W 001°49'3 6.0
2019-Sep-17 02:00N 56°08' W 001°48'4 6.0
2019-Sep-17 01:25N 56°11' W 001°47'45 4.2
2019-Sep-16 14:40N 56°56' W 001°50'1 4.9
2019-Sep-16 14:29N 56°57' W 001°50'3 6.7
2019-Sep-16 14:00N 56°60' W 001°47'3 5.1
2019-Sep-16 13:30N 57°02' W 001°45'4 8.1
2019-Sep-16 12:58N 57°06' W 001°43'4 7.4
2019-Sep-16 12:29N 57°10' W 001°41'4 7.6
2019-Sep-16 11:54N 57°14' W 001°39'2 5.9
2019-Sep-16 11:30N 57°16' W 001°39'3 6.9
2019-Sep-16 11:00N 57°20' W 001°39'4 7.2
2019-Sep-16 10:30N 57°23' W 001°38'3 6.5
2019-Sep-16 10:00N 57°27' W 001°38'3 6.2
2019-Sep-16 09:31N 57°30' W 001°38'3 6.4
2019-Sep-16 09:00N 57°33' W 001°39'3 5.8
2019-Sep-16 08:30N 57°36' W 001°40'2 4.3
2019-Sep-16 08:00N 57°38' W 001°41'2 3.4
2019-Sep-16 07:30N 57°39' W 001°42'2 3.3
2019-Sep-16 07:00N 57°41' W 001°44'2 4.2
2019-Sep-16 06:30N 57°43' W 001°46'2 4.4
2019-Sep-16 06:00N 57°44' W 001°49'2 3.9
2019-Sep-16 05:30N 57°46' W 001°51'3 5.1
2019-Sep-16 05:00N 57°48' W 001°54'47 6.6
2019-Sep-15 21:46N 58°27' W 002°44'2 7.2
2019-Sep-15 21:30N 58°29' W 002°46'3 6.7
2019-Sep-15 21:00N 58°32' W 002°49'3 6.6
2019-Sep-15 20:30N 58°35' W 002°52'4 7.1
2019-Sep-15 20:00N 58°38' W 002°56'5 9.0
2019-Sep-15 19:30N 58°42' W 002°60'4 8.7
2019-Sep-15 19:00N 58°46' W 003°03'3 5.8
2019-Sep-15 18:30N 58°49' W 003°03'3 5.3
2019-Sep-15 18:00N 58°51' W 003°04'3 5.4
2019-Sep-15 17:30N 58°53' W 003°08'3 5.7
2019-Sep-15 17:00N 58°54' W 003°12'3 5.9
2019-Sep-15 16:31N 58°57' W 003°16'1 2.6
2019-Sep-15 15:58N 58°58' W 003°18'0 0.0
2019-Sep-15 15:28N 58°58' W 003°18'0 0.0
2019-Sep-15 14:55N 58°58' W 003°18'0 0.0
2019-Sep-15 14:28N 58°58' W 003°18'0 0.0
2019-Sep-15 13:58N 58°58' W 003°18'0 0.0
2019-Sep-15 13:28N 58°58' W 003°18'0 0.0
2019-Sep-15 12:58N 58°58' W 003°18'0 0.0
2019-Sep-15 12:28N 58°58' W 003°18'0 0.0
2019-Sep-15 11:58N 58°58' W 003°18'0 0.0
2019-Sep-15 11:28N 58°58' W 003°18'0 0.0
2019-Sep-15 10:58N 58°58' W 003°18'0 0.0
2019-Sep-15 10:25N 58°58' W 003°18'0 0.0
2019-Sep-15 09:49N 58°58' W 003°18'0 0.0
2019-Sep-15 09:25N 58°58' W 003°18'0 0.0
2019-Sep-15 08:58N 58°58' W 003°18'0 0.0
2019-Sep-15 08:28N 58°58' W 003°18'0 0.0
2019-Sep-15 07:46N 58°58' W 003°18'0 0.0
2019-Sep-15 07:28N 58°58' W 003°18'0 0.0
2019-Sep-15 06:58N 58°58' W 003°18'0 0.0
2019-Sep-15 06:28N 58°58' W 003°18'0 0.0
2019-Sep-15 05:55N 58°58' W 003°18'0 0.0
2019-Sep-15 05:25N 58°58' W 003°18'0 0.0
2019-Sep-15 04:55N 58°58' W 003°18'0 0.0
2019-Sep-15 04:28N 58°58' W 003°18'0 0.0
2019-Sep-15 03:58N 58°58' W 003°18'0 0.0
2019-Sep-15 03:28N 58°58' W 003°18'0 0.0
2019-Sep-15 02:55N 58°58' W 003°18'0 0.0
2019-Sep-15 02:28N 58°58' W 003°18'0 0.0
2019-Sep-15 01:55N 58°58' W 003°18'0 0.0
2019-Sep-15 01:19N 58°58' W 003°18'0 0.0
2019-Sep-15 00:58N 58°58' W 003°18'0 0.0
2019-Sep-15 00:28N 58°58' W 003°18'0 0.0
2019-Sep-14 23:58N 58°58' W 003°18'0 0.0
2019-Sep-14 23:28N 58°58' W 003°18'0 0.0
2019-Sep-14 22:58N 58°58' W 003°18'0 0.0
2019-Sep-14 22:25N 58°58' W 003°18'0 0.0
2019-Sep-14 21:58N 58°58' W 003°18'0 0.0
2019-Sep-14 21:28N 58°58' W 003°18'0 0.0
2019-Sep-14 20:58N 58°58' W 003°18'0 0.0
2019-Sep-14 20:28N 58°58' W 003°18'0 0.0
2019-Sep-14 19:58N 58°58' W 003°18'0 0.0
2019-Sep-14 19:28N 58°58' W 003°18'0 0.0
2019-Sep-14 18:58N 58°58' W 003°18'0 0.0
2019-Sep-14 18:25N 58°58' W 003°18'0 0.0
2019-Sep-14 17:55N 58°58' W 003°18'0 0.0
2019-Sep-14 17:25N 58°58' W 003°18'0 0.0
2019-Sep-14 16:58N 58°58' W 003°18'0 0.0
2019-Sep-14 16:28N 58°58' W 003°18'0 0.0
2019-Sep-14 15:58N 58°58' W 003°18'0 0.0
2019-Sep-14 15:28N 58°58' W 003°18'0 0.0
2019-Sep-14 14:58N 58°58' W 003°18'0 0.0
2019-Sep-14 14:28N 58°58' W 003°18'0 0.0
2019-Sep-14 13:58N 58°58' W 003°18'0 0.0
2019-Sep-14 13:28N 58°58' W 003°18'0 0.0
2019-Sep-14 12:58N 58°58' W 003°18'0 0.0
2019-Sep-14 12:25N 58°58' W 003°18'0 0.0
2019-Sep-14 11:55N 58°58' W 003°18'0 0.0
2019-Sep-14 11:25N 58°58' W 003°18'0 0.0
2019-Sep-14 10:58N 58°58' W 003°18'0 0.0
2019-Sep-14 10:28N 58°58' W 003°18'0 0.0
2019-Sep-14 09:58N 58°58' W 003°18'0 0.0
2019-Sep-14 09:28N 58°58' W 003°18'0 0.0
2019-Sep-14 08:58N 58°58' W 003°18'0 0.0
2019-Sep-14 08:28N 58°58' W 003°18'0 0.0
2019-Sep-14 07:58N 58°58' W 003°18'0 0.0
2019-Sep-14 07:28N 58°58' W 003°18'0 0.0
2019-Sep-14 06:58N 58°58' W 003°18'0 0.1
2019-Sep-14 06:30N 58°58' W 003°18'2 4.2
2019-Sep-14 06:00N 58°57' W 003°21'4 7.4
2019-Sep-14 05:30N 58°56' W 003°28'2 4.6
2019-Sep-14 05:00N 58°55' W 003°33'2 4.4
2019-Sep-14 04:30N 58°55' W 003°37'3 5.5
2019-Sep-14 04:00N 58°53' W 003°41'3 5.3
2019-Sep-14 03:30N 58°52' W 003°46'3 6.0
2019-Sep-14 03:00N 58°50' W 003°50'3 6.3
2019-Sep-14 02:30N 58°49' W 003°56'2 4.3
2019-Sep-14 02:00N 58°47' W 003°59'2 3.8
2019-Sep-14 01:30N 58°47' W 004°03'2 4.3
2019-Sep-14 01:00N 58°46' W 004°06'3 5.3
2019-Sep-14 00:30N 58°45' W 004°12'2 4.9
2019-Sep-14 00:00N 58°45' W 004°16'3 5.2
2019-Sep-13 23:30N 58°44' W 004°21'3 5.7
2019-Sep-13 23:00N 58°44' W 004°26'3 5.8
2019-Sep-13 22:30N 58°44' W 004°32'  
2019-Sep-11 03:00N 61°36' W 019°18'   280 / 20988.010.8 11.0 9.4
Track history (hours):
 
Tides and Currents Weather Stations Pressure Air Temp Water Temp Dewpoint Dewpoint Depression Visibility Wind Speed Wind Dir Waves Ship Positions

Lord Nelson (United Kingdom)

Ship's website: http://www.jst.org.uk/

Last reported at 2019-Sep-20 08:43 UTC. Time now 2019-Sep-20 09:39 UTC.
Position N 55°05' W 000°51'.

Length 54.7 m; beam 9 m; draft 4.1 m.

Type: Sailing vessel. MMSI: 232003690.

Date/timePositionNaut miles runAvg speedWind from/ knotsBaromVisibWave heightAir tempDewpointWater temp
2019-Sep-20 08:43N 55°05' W 000°51'2 7.7
2019-Sep-20 08:26N 55°06' W 000°54'3 7.7
2019-Sep-20 08:00N 55°09' W 000°57'4 7.8
2019-Sep-20 07:30N 55°12' W 001°01'4 7.9
2019-Sep-20 07:00N 55°16' W 001°05'4 7.8
2019-Sep-20 06:29N 55°19' W 001°09'4 7.9
2019-Sep-20 05:59N 55°22' W 001°13'4 7.8
2019-Sep-20 05:31N 55°26' W 001°16'4 8.1
2019-Sep-20 04:58N 55°29' W 001°20'4 8.2
2019-Sep-20 04:26N 55°33' W 001°24'3 7.8
2019-Sep-20 04:00N 55°36' W 001°27'4 7.8
2019-Sep-20 03:30N 55°39' W 001°31'4 7.8
2019-Sep-20 03:01N 55°42' W 001°35'4 7.8
2019-Sep-20 02:30N 55°45' W 001°40'4 7.8
2019-Sep-20 02:01N 55°47' W 001°45'4 7.6
2019-Sep-20 01:31N 55°50' W 001°50'4 7.2
2019-Sep-20 01:00N 55°52' W 001°55'3 6.7
2019-Sep-20 00:31N 55°54' W 001°60'3 6.8
2019-Sep-20 00:01N 55°56' W 002°05'3 6.8
2019-Sep-19 23:30N 55°59' W 002°09'4 7.2
2019-Sep-19 22:59N 56°00' W 002°15'4 7.2
2019-Sep-19 22:25N 56°02' W 002°22'3 7.8
2019-Sep-19 22:00N 56°03' W 002°27'4 8.0
2019-Sep-19 21:30N 56°05' W 002°33'5 8.5
2019-Sep-19 20:57N 56°06' W 002°42'4 9.0
2019-Sep-19 20:30N 56°05' W 002°49'5 9.5
2019-Sep-19 20:00N 56°03' W 002°57'5 9.2
2019-Sep-19 19:29N 56°02' W 003°05'4 8.6
2019-Sep-19 19:00N 55°60' W 003°11'0 0.8
2019-Sep-19 18:24N 55°59' W 003°11'0 1.0
2019-Sep-19 17:58N 55°59' W 003°11'0 0.0
2019-Sep-19 17:28N 55°59' W 003°11'0 0.0
2019-Sep-19 16:58N 55°59' W 003°11'0 0.0
2019-Sep-19 16:28N 55°59' W 003°11'0 0.0
2019-Sep-19 16:01N 55°59' W 003°11'0 0.0
2019-Sep-19 15:31N 55°59' W 003°11'0 0.0
2019-Sep-19 15:01N 55°59' W 003°11'0 0.0
2019-Sep-19 14:31N 55°59' W 003°11'0 0.0
2019-Sep-19 14:01N 55°59' W 003°11'0 0.0
2019-Sep-19 13:31N 55°59' W 003°11'0 0.0
2019-Sep-19 13:00N 55°59' W 003°11'0 0.0
2019-Sep-19 12:30N 55°59' W 003°11'0 0.0
2019-Sep-19 12:00N 55°59' W 003°11'0 0.0
2019-Sep-19 11:30N 55°59' W 003°11'0 0.0
2019-Sep-19 11:00N 55°59' W 003°11'0 0.0
2019-Sep-19 10:30N 55°59' W 003°11'0 0.0
2019-Sep-19 10:00N 55°59' W 003°11'0 0.0
2019-Sep-19 09:30N 55°59' W 003°11'0 0.0
2019-Sep-19 09:00N 55°59' W 003°11'0 0.0
2019-Sep-19 08:30N 55°59' W 003°11'0 0.0
2019-Sep-19 08:00N 55°59' W 003°11'0 0.0
2019-Sep-19 07:30N 55°59' W 003°11'0 0.0
2019-Sep-19 07:00N 55°59' W 003°11'0 0.0
2019-Sep-19 06:30N 55°59' W 003°11'0 0.0
2019-Sep-19 06:00N 55°59' W 003°11'0 0.0
2019-Sep-19 05:30N 55°59' W 003°11'0 0.0
2019-Sep-19 05:00N 55°59' W 003°11'0 0.0
2019-Sep-19 04:30N 55°59' W 003°11'0 0.0
2019-Sep-19 04:00N 55°59' W 003°11'0 0.0
2019-Sep-19 03:30N 55°59' W 003°11'0 0.0
2019-Sep-19 03:00N 55°59' W 003°11'0 0.0
2019-Sep-19 02:30N 55°59' W 003°11'0 0.0
2019-Sep-19 02:00N 55°59' W 003°11'0 0.0
2019-Sep-19 01:30N 55°59' W 003°11'0 0.0
2019-Sep-19 01:00N 55°59' W 003°11'0 0.0
2019-Sep-19 00:30N 55°59' W 003°11'0 0.0
2019-Sep-19 00:00N 55°59' W 003°11'0 0.0
2019-Sep-18 23:30N 55°59' W 003°11'0 0.0
2019-Sep-18 23:00N 55°59' W 003°11'0 0.0
2019-Sep-18 22:30N 55°59' W 003°11'0 0.0
2019-Sep-18 22:00N 55°59' W 003°11'0 0.0
2019-Sep-18 21:30N 55°59' W 003°11'0 0.0
2019-Sep-18 21:00N 55°59' W 003°11'0 0.0
2019-Sep-18 20:30N 55°59' W 003°11'0 0.0
2019-Sep-18 20:00N 55°59' W 003°11'0 0.0
2019-Sep-18 19:27N 55°59' W 003°11'0 0.0
2019-Sep-18 19:00N 55°59' W 003°11'0 0.0
2019-Sep-18 18:30N 55°59' W 003°11'0 0.0
2019-Sep-18 18:00N 55°59' W 003°11'0 0.0
2019-Sep-18 17:30N 55°59' W 003°11'0 0.0
2019-Sep-18 17:00N 55°59' W 003°11'0 0.0
2019-Sep-18 16:27N 55°59' W 003°11'0 0.0
2019-Sep-18 16:00N 55°59' W 003°11'0 0.0
2019-Sep-18 15:30N 55°59' W 003°11'0 0.0
2019-Sep-18 15:00N 55°59' W 003°11'0 0.0
2019-Sep-18 14:30N 55°59' W 003°11'0 0.0
2019-Sep-18 14:00N 55°59' W 003°11'0 0.0
2019-Sep-18 13:30N 55°59' W 003°11'0 0.0
2019-Sep-18 13:00N 55°59' W 003°11'0 0.0
2019-Sep-18 12:30N 55°59' W 003°11'0 0.0
2019-Sep-18 12:00N 55°59' W 003°11'0 0.0
2019-Sep-18 11:30N 55°59' W 003°11'0 0.0
2019-Sep-18 11:00N 55°59' W 003°11'0 0.0
2019-Sep-18 10:30N 55°59' W 003°11'0 0.0
2019-Sep-18 10:00N 55°59' W 003°11'0 0.0
2019-Sep-18 09:30N 55°59' W 003°11'0 0.0
2019-Sep-18 09:00N 55°59' W 003°11'0 0.0
2019-Sep-18 08:30N 55°59' W 003°11'0 0.0
2019-Sep-18 08:00N 55°59' W 003°11'0 0.0
2019-Sep-18 07:30N 55°59' W 003°11'0 0.0
2019-Sep-18 07:00N 55°59' W 003°11'0 0.0
2019-Sep-18 06:30N 55°59' W 003°11'0 0.0
2019-Sep-18 06:00N 55°59' W 003°11'0 0.0
2019-Sep-18 05:30N 55°59' W 003°11'0 0.0
2019-Sep-18 05:00N 55°59' W 003°11'0 0.0
2019-Sep-18 04:30N 55°59' W 003°11'0 0.0
2019-Sep-18 04:00N 55°59' W 003°11'0 0.0
2019-Sep-18 03:30N 55°59' W 003°11'0 0.0
2019-Sep-18 03:00N 55°59' W 003°11'0 0.0
2019-Sep-18 02:30N 55°59' W 003°11'0 0.0
2019-Sep-18 02:00N 55°59' W 003°11'0 0.0
2019-Sep-18 01:30N 55°59' W 003°11'0 0.0
2019-Sep-18 01:00N 55°59' W 003°11'0 0.0
2019-Sep-18 00:30N 55°59' W 003°11'0 0.0
2019-Sep-18 00:00N 55°59' W 003°11'0 0.0
2019-Sep-17 23:30N 55°59' W 003°11'0 0.0
2019-Sep-17 23:00N 55°59' W 003°11'0 0.0
2019-Sep-17 22:30N 55°59' W 003°11'0 0.0
2019-Sep-17 22:00N 55°59' W 003°11'0 0.0
2019-Sep-17 21:30N 55°59' W 003°11'0 0.0
2019-Sep-17 21:00N 55°59' W 003°11'0 0.0
2019-Sep-17 20:30N 55°59' W 003°11'0 0.0
2019-Sep-17 20:00N 55°59' W 003°11'0 0.0
2019-Sep-17 19:30N 55°59' W 003°11'0 0.0
2019-Sep-17 19:00N 55°59' W 003°11'0 0.0
2019-Sep-17 18:27N 55°59' W 003°11'0 0.0
2019-Sep-17 18:00N 55°59' W 003°11'0 0.0
2019-Sep-17 17:30N 55°59' W 003°11'0 0.0
2019-Sep-17 17:00N 55°59' W 003°11'0 0.0
2019-Sep-17 16:30N 55°59' W 003°11'0 0.0
2019-Sep-17 16:00N 55°59' W 003°11'0 0.0
2019-Sep-17 15:30N 55°59' W 003°11'0 0.0
2019-Sep-17 15:00N 55°59' W 003°11'0 0.9
2019-Sep-17 14:30N 55°59' W 003°11'0 0.8
2019-Sep-17 14:00N 55°60' W 003°11'2 4.7
2019-Sep-17 13:30N 56°01' W 003°07'4 7.1
2019-Sep-17 13:00N 56°02' W 003°02'4 7.7
2019-Sep-17 12:30N 56°04' W 002°55'4 7.7
2019-Sep-17 12:00N 56°05' W 002°49'5 6.8
2019-Sep-17 11:17N 56°05' W 002°40'2 7.0
2019-Sep-17 11:00N 56°04' W 002°37'5 6.6
2019-Sep-17 10:14N 56°04' W 002°28'10 6.3
2019-Sep-17 08:39N 56°04' W 002°10'1 5.9
2019-Sep-17 08:30N 56°04' W 002°08'3 5.9
2019-Sep-17 08:00N 56°04' W 002°03'3 5.7
2019-Sep-17 07:26N 56°04' W 001°57'3 6.1
2019-Sep-17 07:00N 56°05' W 001°52'3 5.9
2019-Sep-17 06:31N 56°06' W 001°47'3 5.3
2019-Sep-17 06:00N 56°06' W 001°43'2 4.2
2019-Sep-17 05:30N 56°07' W 001°39'0 0.9
2019-Sep-17 05:00N 56°06' W 001°39'2 4.0
2019-Sep-17 04:30N 56°05' W 001°42'3 5.6
2019-Sep-17 04:01N 56°03' W 001°46'2 4.2
2019-Sep-17 03:31N 56°02' W 001°48'1 2.2
2019-Sep-17 03:00N 56°02' W 001°50'3 5.4
2019-Sep-17 02:30N 56°05' W 001°49'3 6.0
2019-Sep-17 02:00N 56°08' W 001°48'4 6.0
2019-Sep-17 01:25N 56°11' W 001°47'45 4.2
2019-Sep-16 14:40N 56°56' W 001°50'1 4.9
2019-Sep-16 14:29N 56°57' W 001°50'3 6.7
2019-Sep-16 14:00N 56°60' W 001°47'3 5.1
2019-Sep-16 13:30N 57°02' W 001°45'4 8.1
2019-Sep-16 12:58N 57°06' W 001°43'4 7.4
2019-Sep-16 12:29N 57°10' W 001°41'4 7.6
2019-Sep-16 11:54N 57°14' W 001°39'2 5.9
2019-Sep-16 11:30N 57°16' W 001°39'3 6.9
2019-Sep-16 11:00N 57°20' W 001°39'4 7.2
2019-Sep-16 10:30N 57°23' W 001°38'3 6.5
2019-Sep-16 10:00N 57°27' W 001°38'3 6.2
2019-Sep-16 09:31N 57°30' W 001°38'3 6.4
2019-Sep-16 09:00N 57°33' W 001°39'3 5.8
2019-Sep-16 08:30N 57°36' W 001°40'2 4.3
2019-Sep-16 08:00N 57°38' W 001°41'2 3.4
2019-Sep-16 07:30N 57°39' W 001°42'2 3.3
2019-Sep-16 07:00N 57°41' W 001°44'2 4.2
2019-Sep-16 06:30N 57°43' W 001°46'2 4.4
2019-Sep-16 06:00N 57°44' W 001°49'2 3.9
2019-Sep-16 05:30N 57°46' W 001°51'3 5.1
2019-Sep-16 05:00N 57°48' W 001°54'47 6.6
2019-Sep-15 21:46N 58°27' W 002°44'2 7.2
2019-Sep-15 21:30N 58°29' W 002°46'3 6.7
2019-Sep-15 21:00N 58°32' W 002°49'3 6.6
2019-Sep-15 20:30N 58°35' W 002°52'4 7.1
2019-Sep-15 20:00N 58°38' W 002°56'5 9.0
2019-Sep-15 19:30N 58°42' W 002°60'4 8.7
2019-Sep-15 19:00N 58°46' W 003°03'3 5.8
2019-Sep-15 18:30N 58°49' W 003°03'3 5.3
2019-Sep-15 18:00N 58°51' W 003°04'3 5.4
2019-Sep-15 17:30N 58°53' W 003°08'3 5.7
2019-Sep-15 17:00N 58°54' W 003°12'3 5.9
2019-Sep-15 16:31N 58°57' W 003°16'1 2.6
2019-Sep-15 15:58N 58°58' W 003°18'0 0.0
2019-Sep-15 15:28N 58°58' W 003°18'0 0.0
2019-Sep-15 14:55N 58°58' W 003°18'0 0.0
2019-Sep-15 14:28N 58°58' W 003°18'0 0.0
2019-Sep-15 13:58N 58°58' W 003°18'0 0.0
2019-Sep-15 13:28N 58°58' W 003°18'0 0.0
2019-Sep-15 12:58N 58°58' W 003°18'0 0.0
2019-Sep-15 12:28N 58°58' W 003°18'0 0.0
2019-Sep-15 11:58N 58°58' W 003°18'0 0.0
2019-Sep-15 11:28N 58°58' W 003°18'0 0.0
2019-Sep-15 10:58N 58°58' W 003°18'0 0.0
2019-Sep-15 10:25N 58°58' W 003°18'0 0.0
2019-Sep-15 09:49N 58°58' W 003°18'0 0.0
2019-Sep-15 09:25N 58°58' W 003°18'0 0.0
2019-Sep-15 08:58N 58°58' W 003°18'0 0.0
2019-Sep-15 08:28N 58°58' W 003°18'0 0.0
2019-Sep-15 07:46N 58°58' W 003°18'0 0.0
2019-Sep-15 07:28N 58°58' W 003°18'0 0.0
2019-Sep-15 06:58N 58°58' W 003°18'0 0.0
2019-Sep-15 06:28N 58°58' W 003°18'0 0.0
2019-Sep-15 05:55N 58°58' W 003°18'0 0.0
2019-Sep-15 05:25N 58°58' W 003°18'0 0.0
2019-Sep-15 04:55N 58°58' W 003°18'0 0.0
2019-Sep-15 04:28N 58°58' W 003°18'0 0.0
2019-Sep-15 03:58N 58°58' W 003°18'0 0.0
2019-Sep-15 03:28N 58°58' W 003°18'0 0.0
2019-Sep-15 02:55N 58°58' W 003°18'0 0.0
2019-Sep-15 02:28N 58°58' W 003°18'0 0.0
2019-Sep-15 01:55N 58°58' W 003°18'0 0.0
2019-Sep-15 01:19N 58°58' W 003°18'0 0.0
2019-Sep-15 00:58N 58°58' W 003°18'0 0.0
2019-Sep-15 00:28N 58°58' W 003°18'0 0.0
2019-Sep-14 23:58N 58°58' W 003°18'0 0.0
2019-Sep-14 23:28N 58°58' W 003°18'0 0.0
2019-Sep-14 22:58N 58°58' W 003°18'0 0.0
2019-Sep-14 22:25N 58°58' W 003°18'0 0.0
2019-Sep-14 21:58N 58°58' W 003°18'0 0.0
2019-Sep-14 21:28N 58°58' W 003°18'0 0.0
2019-Sep-14 20:58N 58°58' W 003°18'0 0.0
2019-Sep-14 20:28N 58°58' W 003°18'0 0.0
2019-Sep-14 19:58N 58°58' W 003°18'0 0.0
2019-Sep-14 19:28N 58°58' W 003°18'0 0.0
2019-Sep-14 18:58N 58°58' W 003°18'0 0.0
2019-Sep-14 18:25N 58°58' W 003°18'0 0.0
2019-Sep-14 17:55N 58°58' W 003°18'0 0.0
2019-Sep-14 17:25N 58°58' W 003°18'0 0.0
2019-Sep-14 16:58N 58°58' W 003°18'0 0.0
2019-Sep-14 16:28N 58°58' W 003°18'0 0.0
2019-Sep-14 15:58N 58°58' W 003°18'0 0.0
2019-Sep-14 15:28N 58°58' W 003°18'0 0.0
2019-Sep-14 14:58N 58°58' W 003°18'0 0.0
2019-Sep-14 14:28N 58°58' W 003°18'0 0.0
2019-Sep-14 13:58N 58°58' W 003°18'0 0.0
2019-Sep-14 13:28N 58°58' W 003°18'0 0.0
2019-Sep-14 12:58N 58°58' W 003°18'0 0.0
2019-Sep-14 12:25N 58°58' W 003°18'0 0.0
2019-Sep-14 11:55N 58°58' W 003°18'0 0.0
2019-Sep-14 11:25N 58°58' W 003°18'0 0.0
2019-Sep-14 10:58N 58°58' W 003°18'0 0.0
2019-Sep-14 10:28N 58°58' W 003°18'0 0.0
2019-Sep-14 09:58N 58°58' W 003°18'0 0.0
2019-Sep-14 09:28N 58°58' W 003°18'0 0.0
2019-Sep-14 08:58N 58°58' W 003°18'0 0.0
2019-Sep-14 08:28N 58°58' W 003°18'0 0.0
2019-Sep-14 07:58N 58°58' W 003°18'0 0.0
2019-Sep-14 07:28N 58°58' W 003°18'0 0.0
2019-Sep-14 06:58N 58°58' W 003°18'0 0.1
2019-Sep-14 06:30N 58°58' W 003°18'2 4.2
2019-Sep-14 06:00N 58°57' W 003°21'4 7.4
2019-Sep-14 05:30N 58°56' W 003°28'2 4.6
2019-Sep-14 05:00N 58°55' W 003°33'2 4.4
2019-Sep-14 04:30N 58°55' W 003°37'3 5.5
2019-Sep-14 04:00N 58°53' W 003°41'3 5.3
2019-Sep-14 03:30N 58°52' W 003°46'3 6.0
2019-Sep-14 03:00N 58°50' W 003°50'3 6.3
2019-Sep-14 02:30N 58°49' W 003°56'2 4.3
2019-Sep-14 02:00N 58°47' W 003°59'2 3.8
2019-Sep-14 01:30N 58°47' W 004°03'2 4.3
2019-Sep-14 01:00N 58°46' W 004°06'3 5.3
2019-Sep-14 00:30N 58°45' W 004°12'2 4.9
2019-Sep-14 00:00N 58°45' W 004°16'3 5.2
2019-Sep-13 23:30N 58°44' W 004°21'3 5.7
2019-Sep-13 23:00N 58°44' W 004°26'3 5.8
2019-Sep-13 22:30N 58°44' W 004°32'  
2019-Sep-11 03:00N 61°36' W 019°18'   280 / 20988.010.8 11.0 9.4

Dump ship's entire track history